sensor_id;sensor_type;location;lat;lon;timestamp;temperature;humidity
61672;DHT22;47572;0.00000000;0.00000000;2022-12-11T00:01:08;18.20;62.50
61672;DHT22;47572;0.00000000;0.00000000;2022-12-11T00:03:33;18.10;62.50
61672;DHT22;47572;0.00000000;0.00000000;2022-12-11T00:05:59;18.10;62.50
61672;DHT22;47572;0.00000000;0.00000000;2022-12-11T00:08:28;18.10;62.50
61672;DHT22;47572;0.00000000;0.00000000;2022-12-11T00:10:58;18.10;62.60
61672;DHT22;47572;0.00000000;0.00000000;2022-12-11T00:13:24;18.10;62.50
61672;DHT22;47572;0.00000000;0.00000000;2022-12-11T00:15:50;18.00;63.30
61672;DHT22;47572;0.00000000;0.00000000;2022-12-11T00:18:17;18.00;62.40
61672;DHT22;47572;0.00000000;0.00000000;2022-12-11T00:20:43;18.00;62.40
61672;DHT22;47572;0.00000000;0.00000000;2022-12-11T00:23:09;18.00;62.50
61672;DHT22;47572;0.00000000;0.00000000;2022-12-11T00:25:46;18.00;62.50
61672;DHT22;47572;0.00000000;0.00000000;2022-12-11T00:28:13;18.00;62.50
61672;DHT22;47572;0.00000000;0.00000000;2022-12-11T00:30:39;18.00;62.40
61672;DHT22;47572;0.00000000;0.00000000;2022-12-11T00:33:05;18.00;62.40
61672;DHT22;47572;0.00000000;0.00000000;2022-12-11T00:35:31;17.90;62.30
61672;DHT22;47572;0.00000000;0.00000000;2022-12-11T00:37:57;17.90;62.20
61672;DHT22;47572;0.00000000;0.00000000;2022-12-11T00:40:23;17.90;62.30
61672;DHT22;47572;0.00000000;0.00000000;2022-12-11T00:42:49;17.90;62.30
61672;DHT22;47572;0.00000000;0.00000000;2022-12-11T00:45:18;17.90;62.10
61672;DHT22;47572;0.00000000;0.00000000;2022-12-11T00:47:44;17.90;62.00
61672;DHT22;47572;0.00000000;0.00000000;2022-12-11T00:50:09;17.80;62.10
61672;DHT22;47572;0.00000000;0.00000000;2022-12-11T00:52:37;17.80;62.20
61672;DHT22;47572;0.00000000;0.00000000;2022-12-11T00:55:05;17.80;62.20
61672;DHT22;47572;0.00000000;0.00000000;2022-12-11T00:57:31;17.80;62.10
61672;DHT22;47572;0.00000000;0.00000000;2022-12-11T00:59:56;17.80;62.10
61672;DHT22;47572;0.00000000;0.00000000;2022-12-11T01:02:24;17.80;62.00
61672;DHT22;47572;0.00000000;0.00000000;2022-12-11T01:04:50;17.80;62.00
61672;DHT22;47572;0.00000000;0.00000000;2022-12-11T01:07:16;17.70;62.00
61672;DHT22;47572;0.00000000;0.00000000;2022-12-11T01:09:42;17.70;61.90
61672;DHT22;47572;0.00000000;0.00000000;2022-12-11T01:12:26;17.70;62.00
61672;DHT22;47572;0.00000000;0.00000000;2022-12-11T01:14:53;17.70;62.00
61672;DHT22;47572;0.00000000;0.00000000;2022-12-11T01:17:19;17.70;62.00
61672;DHT22;47572;0.00000000;0.00000000;2022-12-11T01:19:45;17.70;61.90
61672;DHT22;47572;0.00000000;0.00000000;2022-12-11T01:22:11;17.70;62.00
61672;DHT22;47572;0.00000000;0.00000000;2022-12-11T01:24:36;17.70;62.00
61672;DHT22;47572;0.00000000;0.00000000;2022-12-11T01:27:02;17.60;61.90
61672;DHT22;47572;0.00000000;0.00000000;2022-12-11T01:29:28;17.60;62.00
61672;DHT22;47572;0.00000000;0.00000000;2022-12-11T01:31:54;17.60;62.00
61672;DHT22;47572;0.00000000;0.00000000;2022-12-11T01:34:20;17.60;61.90
61672;DHT22;47572;0.00000000;0.00000000;2022-12-11T01:36:46;17.60;61.90
61672;DHT22;47572;0.00000000;0.00000000;2022-12-11T01:39:12;17.60;62.00
61672;DHT22;47572;0.00000000;0.00000000;2022-12-11T01:41:37;17.60;61.90
61672;DHT22;47572;0.00000000;0.00000000;2022-12-11T01:44:05;17.60;62.00
61672;DHT22;47572;0.00000000;0.00000000;2022-12-11T01:46:32;17.50;61.90
61672;DHT22;47572;0.00000000;0.00000000;2022-12-11T01:48:59;17.50;61.90
61672;DHT22;47572;0.00000000;0.00000000;2022-12-11T01:51:25;17.50;61.90
61672;DHT22;47572;0.00000000;0.00000000;2022-12-11T01:53:54;17.50;62.00
61672;DHT22;47572;0.00000000;0.00000000;2022-12-11T01:56:21;17.50;61.90
61672;DHT22;47572;0.00000000;0.00000000;2022-12-11T01:58:54;17.50;61.90
61672;DHT22;47572;0.00000000;0.00000000;2022-12-11T02:01:25;17.50;61.90
61672;DHT22;47572;0.00000000;0.00000000;2022-12-11T02:03:52;17.50;61.90
61672;DHT22;47572;0.00000000;0.00000000;2022-12-11T02:06:36;17.50;61.90
61672;DHT22;47572;0.00000000;0.00000000;2022-12-11T02:09:04;17.40;61.80
61672;DHT22;47572;0.00000000;0.00000000;2022-12-11T02:11:37;17.40;61.80
61672;DHT22;47572;0.00000000;0.00000000;2022-12-11T02:14:07;17.50;61.90
61672;DHT22;47572;0.00000000;0.00000000;2022-12-11T02:16:40;17.40;61.90
61672;DHT22;47572;0.00000000;0.00000000;2022-12-11T02:21:42;17.40;61.80
61672;DHT22;47572;0.00000000;0.00000000;2022-12-11T02:29:29;17.40;61.80
61672;DHT22;47572;0.00000000;0.00000000;2022-12-11T02:32:15;17.40;61.90
61672;DHT22;47572;0.00000000;0.00000000;2022-12-11T02:34:43;17.40;61.90
61672;DHT22;47572;0.00000000;0.00000000;2022-12-11T02:37:19;17.40;62.00
61672;DHT22;47572;0.00000000;0.00000000;2022-12-11T02:39:46;17.40;61.90
61672;DHT22;47572;0.00000000;0.00000000;2022-12-11T02:42:15;17.40;61.90
61672;DHT22;47572;0.00000000;0.00000000;2022-12-11T02:44:42;17.40;61.80
61672;DHT22;47572;0.00000000;0.00000000;2022-12-11T02:47:10;17.40;61.80
61672;DHT22;47572;0.00000000;0.00000000;2022-12-11T02:49:37;17.40;61.80
61672;DHT22;47572;0.00000000;0.00000000;2022-12-11T02:52:03;17.50;61.70
61672;DHT22;47572;0.00000000;0.00000000;2022-12-11T02:54:31;17.50;61.70
61672;DHT22;47572;0.00000000;0.00000000;2022-12-11T02:57:11;17.50;61.70
61672;DHT22;47572;0.00000000;0.00000000;2022-12-11T02:59:39;17.50;61.60
61672;DHT22;47572;0.00000000;0.00000000;2022-12-11T03:02:06;17.50;61.60
61672;DHT22;47572;0.00000000;0.00000000;2022-12-11T03:04:33;17.50;61.60
61672;DHT22;47572;0.00000000;0.00000000;2022-12-11T03:07:01;17.50;61.50
61672;DHT22;47572;0.00000000;0.00000000;2022-12-11T03:09:40;17.50;61.50
61672;DHT22;47572;0.00000000;0.00000000;2022-12-11T03:12:08;17.50;61.50
61672;DHT22;47572;0.00000000;0.00000000;2022-12-11T03:14:35;17.50;61.50
61672;DHT22;47572;0.00000000;0.00000000;2022-12-11T03:17:37;17.50;61.40
61672;DHT22;47572;0.00000000;0.00000000;2022-12-11T03:24:52;17.50;61.30
61672;DHT22;47572;0.00000000;0.00000000;2022-12-11T03:29:48;17.50;61.20
61672;DHT22;47572;0.00000000;0.00000000;2022-12-11T03:32:18;17.50;61.20
61672;DHT22;47572;0.00000000;0.00000000;2022-12-11T03:35:08;17.50;61.10
61672;DHT22;47572;0.00000000;0.00000000;2022-12-11T03:37:38;17.50;61.00
61672;DHT22;47572;0.00000000;0.00000000;2022-12-11T03:40:06;17.50;61.00
61672;DHT22;47572;0.00000000;0.00000000;2022-12-11T03:42:35;17.50;61.00
61672;DHT22;47572;0.00000000;0.00000000;2022-12-11T03:45:02;17.50;61.00
61672;DHT22;47572;0.00000000;0.00000000;2022-12-11T03:47:29;17.50;60.90
61672;DHT22;47572;0.00000000;0.00000000;2022-12-11T03:49:55;17.50;60.90
61672;DHT22;47572;0.00000000;0.00000000;2022-12-11T03:52:22;17.50;60.90
61672;DHT22;47572;0.00000000;0.00000000;2022-12-11T03:54:52;17.50;60.90
61672;DHT22;47572;0.00000000;0.00000000;2022-12-11T03:57:20;17.50;60.90
61672;DHT22;47572;0.00000000;0.00000000;2022-12-11T03:59:47;17.60;60.90
61672;DHT22;47572;0.00000000;0.00000000;2022-12-11T04:02:13;17.60;60.80
61672;DHT22;47572;0.00000000;0.00000000;2022-12-11T04:04:40;17.60;60.70
61672;DHT22;47572;0.00000000;0.00000000;2022-12-11T04:07:06;17.60;61.60
61672;DHT22;47572;0.00000000;0.00000000;2022-12-11T04:09:33;17.60;60.60
61672;DHT22;47572;0.00000000;0.00000000;2022-12-11T04:11:59;17.60;60.60
61672;DHT22;47572;0.00000000;0.00000000;2022-12-11T04:14:26;17.60;60.60
61672;DHT22;47572;0.00000000;0.00000000;2022-12-11T04:17:10;17.60;60.60
61672;DHT22;47572;0.00000000;0.00000000;2022-12-11T04:19:36;17.60;60.50
61672;DHT22;47572;0.00000000;0.00000000;2022-12-11T04:22:20;17.60;60.60
61672;DHT22;47572;0.00000000;0.00000000;2022-12-11T04:25:07;17.60;60.70
61672;DHT22;47572;0.00000000;0.00000000;2022-12-11T04:27:33;17.60;60.50
61672;DHT22;47572;0.00000000;0.00000000;2022-12-11T04:30:15;17.60;60.50
61672;DHT22;47572;0.00000000;0.00000000;2022-12-11T04:32:42;17.60;60.50
61672;DHT22;47572;0.00000000;0.00000000;2022-12-11T04:35:14;17.60;60.50
61672;DHT22;47572;0.00000000;0.00000000;2022-12-11T04:37:40;17.60;60.50
61672;DHT22;47572;0.00000000;0.00000000;2022-12-11T04:40:07;17.60;60.50
61672;DHT22;47572;0.00000000;0.00000000;2022-12-11T04:42:33;17.60;60.50
61672;DHT22;47572;0.00000000;0.00000000;2022-12-11T04:44:59;17.50;60.50
61672;DHT22;47572;0.00000000;0.00000000;2022-12-11T04:47:25;17.50;60.40
61672;DHT22;47572;0.00000000;0.00000000;2022-12-11T04:49:52;17.50;60.50
61672;DHT22;47572;0.00000000;0.00000000;2022-12-11T04:52:17;17.50;60.40
61672;DHT22;47572;0.00000000;0.00000000;2022-12-11T04:54:43;17.50;60.40
61672;DHT22;47572;0.00000000;0.00000000;2022-12-11T04:57:10;17.50;60.50
61672;DHT22;47572;0.00000000;0.00000000;2022-12-11T04:59:36;17.50;60.50
61672;DHT22;47572;0.00000000;0.00000000;2022-12-11T05:02:02;17.50;60.50
61672;DHT22;47572;0.00000000;0.00000000;2022-12-11T05:04:31;17.50;60.50
61672;DHT22;47572;0.00000000;0.00000000;2022-12-11T05:06:57;17.50;60.50
61672;DHT22;47572;0.00000000;0.00000000;2022-12-11T05:09:23;17.50;60.60
61672;DHT22;47572;0.00000000;0.00000000;2022-12-11T05:11:50;17.40;60.50
61672;DHT22;47572;0.00000000;0.00000000;2022-12-11T05:14:16;17.40;60.60
61672;DHT22;47572;0.00000000;0.00000000;2022-12-11T05:16:42;17.40;60.60
61672;DHT22;47572;0.00000000;0.00000000;2022-12-11T05:19:08;17.40;60.60
61672;DHT22;47572;0.00000000;0.00000000;2022-12-11T05:21:34;17.40;60.60
61672;DHT22;47572;0.00000000;0.00000000;2022-12-11T05:24:00;17.40;60.60
61672;DHT22;47572;0.00000000;0.00000000;2022-12-11T05:26:26;17.40;60.70
61672;DHT22;47572;0.00000000;0.00000000;2022-12-11T05:28:52;17.30;60.60
61672;DHT22;47572;0.00000000;0.00000000;2022-12-11T05:31:20;17.40;61.20
61672;DHT22;47572;0.00000000;0.00000000;2022-12-11T05:33:46;17.40;60.70
61672;DHT22;47572;0.00000000;0.00000000;2022-12-11T05:36:17;17.30;60.70
61672;DHT22;47572;0.00000000;0.00000000;2022-12-11T05:38:43;17.30;60.70
61672;DHT22;47572;0.00000000;0.00000000;2022-12-11T05:41:11;17.30;60.70
61672;DHT22;47572;0.00000000;0.00000000;2022-12-11T05:43:37;17.30;60.70
61672;DHT22;47572;0.00000000;0.00000000;2022-12-11T05:46:07;17.30;60.70
61672;DHT22;47572;0.00000000;0.00000000;2022-12-11T05:48:34;17.30;60.70
61672;DHT22;47572;0.00000000;0.00000000;2022-12-11T05:51:00;17.30;60.80
61672;DHT22;47572;0.00000000;0.00000000;2022-12-11T05:53:27;17.30;60.70
61672;DHT22;47572;0.00000000;0.00000000;2022-12-11T05:55:53;17.30;60.80
61672;DHT22;47572;0.00000000;0.00000000;2022-12-11T05:58:19;17.30;60.80
61672;DHT22;47572;0.00000000;0.00000000;2022-12-11T06:00:46;17.20;60.70
61672;DHT22;47572;0.00000000;0.00000000;2022-12-11T06:03:14;17.20;60.70
61672;DHT22;47572;0.00000000;0.00000000;2022-12-11T06:05:40;17.20;60.70
61672;DHT22;47572;0.00000000;0.00000000;2022-12-11T06:08:06;17.20;60.70
61672;DHT22;47572;0.00000000;0.00000000;2022-12-11T06:10:32;17.20;60.70
61672;DHT22;47572;0.00000000;0.00000000;2022-12-11T06:12:59;17.20;60.70
61672;DHT22;47572;0.00000000;0.00000000;2022-12-11T06:15:25;17.20;60.70
61672;DHT22;47572;0.00000000;0.00000000;2022-12-11T06:17:51;17.20;60.70
61672;DHT22;47572;0.00000000;0.00000000;2022-12-11T06:20:16;17.20;60.80
61672;DHT22;47572;0.00000000;0.00000000;2022-12-11T06:22:42;17.20;60.70
61672;DHT22;47572;0.00000000;0.00000000;2022-12-11T06:25:10;17.20;60.70
61672;DHT22;47572;0.00000000;0.00000000;2022-12-11T06:27:36;17.20;60.70
61672;DHT22;47572;0.00000000;0.00000000;2022-12-11T06:30:02;17.20;60.70
61672;DHT22;47572;0.00000000;0.00000000;2022-12-11T06:32:38;17.20;60.70
61672;DHT22;47572;0.00000000;0.00000000;2022-12-11T06:35:04;17.20;60.70
61672;DHT22;47572;0.00000000;0.00000000;2022-12-11T06:37:30;17.20;60.70
61672;DHT22;47572;0.00000000;0.00000000;2022-12-11T06:39:58;17.20;60.70
61672;DHT22;47572;0.00000000;0.00000000;2022-12-11T06:42:23;17.20;60.70
61672;DHT22;47572;0.00000000;0.00000000;2022-12-11T06:44:49;17.10;60.60
61672;DHT22;47572;0.00000000;0.00000000;2022-12-11T06:47:15;17.10;60.70
61672;DHT22;47572;0.00000000;0.00000000;2022-12-11T06:49:41;17.10;60.70
61672;DHT22;47572;0.00000000;0.00000000;2022-12-11T06:52:06;17.10;60.70
61672;DHT22;47572;0.00000000;0.00000000;2022-12-11T06:54:32;17.10;60.60
61672;DHT22;47572;0.00000000;0.00000000;2022-12-11T06:56:58;17.10;60.60
61672;DHT22;47572;0.00000000;0.00000000;2022-12-11T06:59:25;17.10;60.70
61672;DHT22;47572;0.00000000;0.00000000;2022-12-11T07:02:11;17.10;60.60
61672;DHT22;47572;0.00000000;0.00000000;2022-12-11T07:04:37;17.10;60.60
61672;DHT22;47572;0.00000000;0.00000000;2022-12-11T07:07:03;17.10;60.60
61672;DHT22;47572;0.00000000;0.00000000;2022-12-11T07:09:29;17.10;60.50
61672;DHT22;47572;0.00000000;0.00000000;2022-12-11T07:11:55;17.10;60.50
61672;DHT22;47572;0.00000000;0.00000000;2022-12-11T07:14:23;17.10;60.50
61672;DHT22;47572;0.00000000;0.00000000;2022-12-11T07:16:49;17.10;60.50
61672;DHT22;47572;0.00000000;0.00000000;2022-12-11T07:19:15;17.10;60.50
61672;DHT22;47572;0.00000000;0.00000000;2022-12-11T07:21:41;17.10;60.50
61672;DHT22;47572;0.00000000;0.00000000;2022-12-11T07:24:06;17.10;60.50
61672;DHT22;47572;0.00000000;0.00000000;2022-12-11T07:26:40;17.10;60.50
61672;DHT22;47572;0.00000000;0.00000000;2022-12-11T07:29:06;17.10;60.50
61672;DHT22;47572;0.00000000;0.00000000;2022-12-11T07:31:32;17.10;60.40
61672;DHT22;47572;0.00000000;0.00000000;2022-12-11T07:33:59;17.10;60.40
61672;DHT22;47572;0.00000000;0.00000000;2022-12-11T07:36:28;17.10;60.40
61672;DHT22;47572;0.00000000;0.00000000;2022-12-11T07:38:54;17.10;60.40
61672;DHT22;47572;0.00000000;0.00000000;2022-12-11T07:41:20;17.10;60.40
61672;DHT22;47572;0.00000000;0.00000000;2022-12-11T07:43:46;17.10;60.40
61672;DHT22;47572;0.00000000;0.00000000;2022-12-11T07:46:13;17.10;60.40
61672;DHT22;47572;0.00000000;0.00000000;2022-12-11T07:48:39;17.00;60.40
61672;DHT22;47572;0.00000000;0.00000000;2022-12-11T07:51:09;17.00;60.40
61672;DHT22;47572;0.00000000;0.00000000;2022-12-11T07:53:35;17.00;60.40
61672;DHT22;47572;0.00000000;0.00000000;2022-12-11T07:56:01;17.00;60.40
61672;DHT22;47572;0.00000000;0.00000000;2022-12-11T07:58:26;17.00;60.30
61672;DHT22;47572;0.00000000;0.00000000;2022-12-11T08:00:53;17.00;60.30
61672;DHT22;47572;0.00000000;0.00000000;2022-12-11T08:03:19;17.00;60.30
61672;DHT22;47572;0.00000000;0.00000000;2022-12-11T08:05:48;17.00;60.20
61672;DHT22;47572;0.00000000;0.00000000;2022-12-11T08:08:14;17.10;60.20
61672;DHT22;47572;0.00000000;0.00000000;2022-12-11T08:10:40;17.10;60.20
61672;DHT22;47572;0.00000000;0.00000000;2022-12-11T08:13:06;17.10;60.20
61672;DHT22;47572;0.00000000;0.00000000;2022-12-11T08:15:34;17.10;60.20
61672;DHT22;47572;0.00000000;0.00000000;2022-12-11T08:18:06;17.10;60.20
61672;DHT22;47572;0.00000000;0.00000000;2022-12-11T08:20:32;17.00;61.70
61672;DHT22;47572;0.00000000;0.00000000;2022-12-11T08:22:58;17.00;61.00
61672;DHT22;47572;0.00000000;0.00000000;2022-12-11T08:25:25;17.00;61.40
61672;DHT22;47572;0.00000000;0.00000000;2022-12-11T08:27:51;17.00;61.40
61672;DHT22;47572;0.00000000;0.00000000;2022-12-11T08:30:16;17.00;61.70
61672;DHT22;47572;0.00000000;0.00000000;2022-12-11T08:32:42;17.00;61.80
61672;DHT22;47572;0.00000000;0.00000000;2022-12-11T08:35:08;17.00;61.90
61672;DHT22;47572;0.00000000;0.00000000;2022-12-11T08:37:34;17.00;62.00
61672;DHT22;47572;0.00000000;0.00000000;2022-12-11T08:40:07;17.10;62.30
61672;DHT22;47572;0.00000000;0.00000000;2022-12-11T08:42:33;17.10;62.30
61672;DHT22;47572;0.00000000;0.00000000;2022-12-11T08:44:59;17.10;62.00
61672;DHT22;47572;0.00000000;0.00000000;2022-12-11T08:47:25;17.20;61.40
61672;DHT22;47572;0.00000000;0.00000000;2022-12-11T08:49:51;17.30;61.20
61672;DHT22;47572;0.00000000;0.00000000;2022-12-11T08:52:17;17.50;61.00
61672;DHT22;47572;0.00000000;0.00000000;2022-12-11T08:54:43;17.60;60.70
61672;DHT22;47572;0.00000000;0.00000000;2022-12-11T08:57:10;17.70;60.30
61672;DHT22;47572;0.00000000;0.00000000;2022-12-11T08:59:36;17.90;60.10
61672;DHT22;47572;0.00000000;0.00000000;2022-12-11T09:02:03;18.00;59.80
61672;DHT22;47572;0.00000000;0.00000000;2022-12-11T09:04:30;18.20;59.50
61672;DHT22;47572;0.00000000;0.00000000;2022-12-11T09:06:56;18.20;59.30
61672;DHT22;47572;0.00000000;0.00000000;2022-12-11T09:09:22;18.30;59.60
61672;DHT22;47572;0.00000000;0.00000000;2022-12-11T09:11:48;18.30;59.60
61672;DHT22;47572;0.00000000;0.00000000;2022-12-11T09:14:14;18.30;60.20
61672;DHT22;47572;0.00000000;0.00000000;2022-12-11T09:16:41;18.20;60.50
61672;DHT22;47572;0.00000000;0.00000000;2022-12-11T09:19:07;18.20;61.00
61672;DHT22;47572;0.00000000;0.00000000;2022-12-11T09:21:33;18.20;61.10
61672;DHT22;47572;0.00000000;0.00000000;2022-12-11T09:24:00;18.10;61.10
61672;DHT22;47572;0.00000000;0.00000000;2022-12-11T09:26:26;18.10;60.70
61672;DHT22;47572;0.00000000;0.00000000;2022-12-11T09:28:54;18.20;60.80
61672;DHT22;47572;0.00000000;0.00000000;2022-12-11T09:31:21;18.20;60.60
61672;DHT22;47572;0.00000000;0.00000000;2022-12-11T09:33:48;18.30;60.60
61672;DHT22;47572;0.00000000;0.00000000;2022-12-11T09:36:14;18.40;60.40
61672;DHT22;47572;0.00000000;0.00000000;2022-12-11T09:38:40;18.50;60.40
61672;DHT22;47572;0.00000000;0.00000000;2022-12-11T09:46:12;18.90;60.00
61672;DHT22;47572;0.00000000;0.00000000;2022-12-11T09:48:39;19.00;59.70
61672;DHT22;47572;0.00000000;0.00000000;2022-12-11T09:51:13;19.10;59.50
61672;DHT22;47572;0.00000000;0.00000000;2022-12-11T09:53:39;19.20;59.20
61672;DHT22;47572;0.00000000;0.00000000;2022-12-11T10:01:27;19.40;58.70
61672;DHT22;47572;0.00000000;0.00000000;2022-12-11T10:06:42;19.50;58.80
61672;DHT22;47572;0.00000000;0.00000000;2022-12-11T10:16:33;19.50;58.80
61672;DHT22;47572;0.00000000;0.00000000;2022-12-11T10:19:00;19.50;58.90
61672;DHT22;47572;0.00000000;0.00000000;2022-12-11T10:21:26;19.50;58.90
61672;DHT22;47572;0.00000000;0.00000000;2022-12-11T10:23:57;19.50;58.90
61672;DHT22;47572;0.00000000;0.00000000;2022-12-11T10:26:24;19.50;59.10
61672;DHT22;47572;0.00000000;0.00000000;2022-12-11T10:28:49;19.50;59.10
61672;DHT22;47572;0.00000000;0.00000000;2022-12-11T10:31:16;19.50;59.10
61672;DHT22;47572;0.00000000;0.00000000;2022-12-11T10:36:34;19.50;59.20
61672;DHT22;47572;0.00000000;0.00000000;2022-12-11T10:39:01;19.50;59.20
61672;DHT22;47572;0.00000000;0.00000000;2022-12-11T10:43:56;19.60;59.30
61672;DHT22;47572;0.00000000;0.00000000;2022-12-11T10:46:23;19.60;59.20
61672;DHT22;47572;0.00000000;0.00000000;2022-12-11T10:48:51;19.60;59.30
61672;DHT22;47572;0.00000000;0.00000000;2022-12-11T10:51:21;19.60;59.30
61672;DHT22;47572;0.00000000;0.00000000;2022-12-11T10:53:51;19.60;59.30
61672;DHT22;47572;0.00000000;0.00000000;2022-12-11T10:56:27;19.60;59.30
61672;DHT22;47572;0.00000000;0.00000000;2022-12-11T10:58:54;19.60;59.30
61672;DHT22;47572;0.00000000;0.00000000;2022-12-11T11:01:22;19.60;59.30
61672;DHT22;47572;0.00000000;0.00000000;2022-12-11T11:06:19;19.60;59.30
61672;DHT22;47572;0.00000000;0.00000000;2022-12-11T11:08:57;19.60;59.30
61672;DHT22;47572;0.00000000;0.00000000;2022-12-11T11:11:34;19.60;59.30
61672;DHT22;47572;0.00000000;0.00000000;2022-12-11T11:14:14;19.60;59.30
61672;DHT22;47572;0.00000000;0.00000000;2022-12-11T11:16:42;19.60;59.30
61672;DHT22;47572;0.00000000;0.00000000;2022-12-11T11:19:14;19.60;59.30
61672;DHT22;47572;0.00000000;0.00000000;2022-12-11T11:21:45;19.60;59.30
61672;DHT22;47572;0.00000000;0.00000000;2022-12-11T11:24:18;19.70;59.40
61672;DHT22;47572;0.00000000;0.00000000;2022-12-11T11:26:46;19.70;59.40
61672;DHT22;47572;0.00000000;0.00000000;2022-12-11T11:29:20;19.70;59.40
61672;DHT22;47572;0.00000000;0.00000000;2022-12-11T11:31:48;19.70;59.40
61672;DHT22;47572;0.00000000;0.00000000;2022-12-11T11:34:14;19.70;59.50
61672;DHT22;47572;0.00000000;0.00000000;2022-12-11T11:36:43;19.70;59.60
61672;DHT22;47572;0.00000000;0.00000000;2022-12-11T11:39:34;19.70;59.60
61672;DHT22;47572;0.00000000;0.00000000;2022-12-11T11:44:32;19.60;59.70
61672;DHT22;47572;0.00000000;0.00000000;2022-12-11T11:47:01;19.60;59.80
61672;DHT22;47572;0.00000000;0.00000000;2022-12-11T11:52:02;19.60;59.90
61672;DHT22;47572;0.00000000;0.00000000;2022-12-11T11:54:33;19.50;60.00
61672;DHT22;47572;0.00000000;0.00000000;2022-12-11T11:57:03;19.50;59.80
61672;DHT22;47572;0.00000000;0.00000000;2022-12-11T11:59:35;19.50;59.80
61672;DHT22;47572;0.00000000;0.00000000;2022-12-11T12:02:08;19.50;59.90
61672;DHT22;47572;0.00000000;0.00000000;2022-12-11T12:04:38;19.40;59.90
61672;DHT22;47572;0.00000000;0.00000000;2022-12-11T12:12:13;19.30;60.20
61672;DHT22;47572;0.00000000;0.00000000;2022-12-11T12:15:24;19.20;60.20
61672;DHT22;47572;0.00000000;0.00000000;2022-12-11T12:25:41;19.00;60.80
61672;DHT22;47572;0.00000000;0.00000000;2022-12-11T12:30:45;18.90;61.00
61672;DHT22;47572;0.00000000;0.00000000;2022-12-11T12:33:17;18.80;62.00
61672;DHT22;47572;0.00000000;0.00000000;2022-12-11T12:38:28;18.70;61.30
61672;DHT22;47572;0.00000000;0.00000000;2022-12-11T12:48:46;18.60;61.60
61672;DHT22;47572;0.00000000;0.00000000;2022-12-11T12:51:14;18.60;61.70
61672;DHT22;47572;0.00000000;0.00000000;2022-12-11T12:53:41;18.60;61.90
61672;DHT22;47572;0.00000000;0.00000000;2022-12-11T12:56:09;18.50;62.00
61672;DHT22;47572;0.00000000;0.00000000;2022-12-11T12:58:40;18.50;61.90
61672;DHT22;47572;0.00000000;0.00000000;2022-12-11T13:03:34;18.50;62.10
61672;DHT22;47572;0.00000000;0.00000000;2022-12-11T13:06:05;18.50;62.20
61672;DHT22;47572;0.00000000;0.00000000;2022-12-11T13:08:43;18.40;62.00
61672;DHT22;47572;0.00000000;0.00000000;2022-12-11T13:11:10;18.40;62.20
61672;DHT22;47572;0.00000000;0.00000000;2022-12-11T13:13:38;18.40;62.20
61672;DHT22;47572;0.00000000;0.00000000;2022-12-11T13:16:21;18.40;62.00
61672;DHT22;47572;0.00000000;0.00000000;2022-12-11T13:18:51;18.40;62.20
61672;DHT22;47572;0.00000000;0.00000000;2022-12-11T13:23:51;18.40;62.20
61672;DHT22;47572;0.00000000;0.00000000;2022-12-11T13:26:30;18.40;62.20
61672;DHT22;47572;0.00000000;0.00000000;2022-12-11T13:29:01;18.40;62.20
61672;DHT22;47572;0.00000000;0.00000000;2022-12-11T13:31:36;18.40;62.20
61672;DHT22;47572;0.00000000;0.00000000;2022-12-11T13:34:15;18.40;62.30
61672;DHT22;47572;0.00000000;0.00000000;2022-12-11T13:36:47;18.30;62.30
61672;DHT22;47572;0.00000000;0.00000000;2022-12-11T13:39:15;18.30;62.30
61672;DHT22;47572;0.00000000;0.00000000;2022-12-11T13:41:54;18.30;62.20
61672;DHT22;47572;0.00000000;0.00000000;2022-12-11T13:44:23;18.30;62.30
61672;DHT22;47572;0.00000000;0.00000000;2022-12-11T13:46:50;18.30;62.30
61672;DHT22;47572;0.00000000;0.00000000;2022-12-11T13:49:19;18.30;62.40
61672;DHT22;47572;0.00000000;0.00000000;2022-12-11T13:51:56;18.30;62.40
61672;DHT22;47572;0.00000000;0.00000000;2022-12-11T13:54:22;18.30;62.30
61672;DHT22;47572;0.00000000;0.00000000;2022-12-11T14:01:57;18.30;62.30
61672;DHT22;47572;0.00000000;0.00000000;2022-12-11T14:04:24;18.30;62.50
61672;DHT22;47572;0.00000000;0.00000000;2022-12-11T14:06:54;18.20;62.60
61672;DHT22;47572;0.00000000;0.00000000;2022-12-11T14:09:22;18.20;62.40
61672;DHT22;47572;0.00000000;0.00000000;2022-12-11T14:11:49;18.20;62.50
61672;DHT22;47572;0.00000000;0.00000000;2022-12-11T14:14:17;18.20;62.40
61672;DHT22;47572;0.00000000;0.00000000;2022-12-11T14:16:45;18.20;62.50
61672;DHT22;47572;0.00000000;0.00000000;2022-12-11T14:19:13;18.20;62.40
61672;DHT22;47572;0.00000000;0.00000000;2022-12-11T14:21:39;18.20;62.40
61672;DHT22;47572;0.00000000;0.00000000;2022-12-11T14:24:05;18.20;62.40
61672;DHT22;47572;0.00000000;0.00000000;2022-12-11T14:26:32;18.20;63.20
61672;DHT22;47572;0.00000000;0.00000000;2022-12-11T14:28:58;18.20;62.40
61672;DHT22;47572;0.00000000;0.00000000;2022-12-11T14:31:32;18.20;62.40
61672;DHT22;47572;0.00000000;0.00000000;2022-12-11T14:34:04;18.20;62.50
61672;DHT22;47572;0.00000000;0.00000000;2022-12-11T14:36:32;18.20;62.50
61672;DHT22;47572;0.00000000;0.00000000;2022-12-11T14:39:02;18.20;62.50
61672;DHT22;47572;0.00000000;0.00000000;2022-12-11T14:41:44;18.20;62.50
61672;DHT22;47572;0.00000000;0.00000000;2022-12-11T14:44:15;18.10;62.60
61672;DHT22;47572;0.00000000;0.00000000;2022-12-11T14:46:45;18.20;62.50
61672;DHT22;47572;0.00000000;0.00000000;2022-12-11T14:51:41;18.20;62.50
61672;DHT22;47572;0.00000000;0.00000000;2022-12-11T14:54:10;18.20;62.40
61672;DHT22;47572;0.00000000;0.00000000;2022-12-11T14:56:39;18.10;62.40
61672;DHT22;47572;0.00000000;0.00000000;2022-12-11T14:59:05;18.10;62.40
61672;DHT22;47572;0.00000000;0.00000000;2022-12-11T15:01:34;18.10;62.50
61672;DHT22;47572;0.00000000;0.00000000;2022-12-11T15:04:01;18.10;62.40
61672;DHT22;47572;0.00000000;0.00000000;2022-12-11T15:06:29;18.10;62.40
61672;DHT22;47572;0.00000000;0.00000000;2022-12-11T15:08:55;18.10;62.40